sensor_id;sensor_type;location;lat;lon;timestamp;P1;durP1;ratioP1;P2;durP2;ratioP2
66567;SDS011;53422;49.296;6.900;2022-11-15T00:02:10;6.05;;;3.30;;
66567;SDS011;53422;49.296;6.900;2022-11-15T00:04:35;6.15;;;3.10;;
66567;SDS011;53422;49.296;6.900;2022-11-15T00:07:01;7.25;;;3.25;;
66567;SDS011;53422;49.296;6.900;2022-11-15T00:09:26;8.70;;;3.65;;
66567;SDS011;53422;49.296;6.900;2022-11-15T00:11:52;9.45;;;3.75;;
66567;SDS011;53422;49.296;6.900;2022-11-15T00:14:17;9.90;;;3.95;;
66567;SDS011;53422;49.296;6.900;2022-11-15T00:16:43;10.60;;;4.10;;
66567;SDS011;53422;49.296;6.900;2022-11-15T00:19:08;7.82;;;3.55;;
66567;SDS011;53422;49.296;6.900;2022-11-15T00:21:34;8.18;;;3.10;;
66567;SDS011;53422;49.296;6.900;2022-11-15T00:24:00;12.63;;;3.72;;
66567;SDS011;53422;49.296;6.900;2022-11-15T00:26:25;9.30;;;3.38;;
66567;SDS011;53422;49.296;6.900;2022-11-15T00:28:54;7.75;;;3.17;;
66567;SDS011;53422;49.296;6.900;2022-11-15T00:31:19;10.52;;;3.38;;
66567;SDS011;53422;49.296;6.900;2022-11-15T00:33:45;8.90;;;3.20;;
66567;SDS011;53422;49.296;6.900;2022-11-15T00:36:11;8.52;;;3.40;;
66567;SDS011;53422;49.296;6.900;2022-11-15T00:38:38;6.68;;;3.00;;
66567;SDS011;53422;49.296;6.900;2022-11-15T00:41:04;6.80;;;3.15;;
66567;SDS011;53422;49.296;6.900;2022-11-15T00:43:31;6.82;;;2.83;;
66567;SDS011;53422;49.296;6.900;2022-11-15T00:45:57;7.47;;;3.50;;
66567;SDS011;53422;49.296;6.900;2022-11-15T00:48:23;9.43;;;3.88;;
66567;SDS011;53422;49.296;6.900;2022-11-15T00:50:49;8.30;;;3.58;;
66567;SDS011;53422;49.296;6.900;2022-11-15T00:53:15;6.53;;;2.95;;
66567;SDS011;53422;49.296;6.900;2022-11-15T00:55:41;7.10;;;3.25;;
66567;SDS011;53422;49.296;6.900;2022-11-15T00:58:06;6.32;;;3.15;;
66567;SDS011;53422;49.296;6.900;2022-11-15T01:00:32;7.70;;;3.33;;
66567;SDS011;53422;49.296;6.900;2022-11-15T01:02:57;5.95;;;2.70;;
66567;SDS011;53422;49.296;6.900;2022-11-15T01:05:24;8.55;;;3.20;;
66567;SDS011;53422;49.296;6.900;2022-11-15T01:07:53;7.20;;;3.63;;
66567;SDS011;53422;49.296;6.900;2022-11-15T01:10:20;8.57;;;3.53;;
66567;SDS011;53422;49.296;6.900;2022-11-15T01:12:46;7.35;;;2.95;;
66567;SDS011;53422;49.296;6.900;2022-11-15T01:15:12;6.07;;;3.17;;
66567;SDS011;53422;49.296;6.900;2022-11-15T01:17:37;7.78;;;3.63;;
66567;SDS011;53422;49.296;6.900;2022-11-15T01:20:03;7.22;;;2.72;;
66567;SDS011;53422;49.296;6.900;2022-11-15T01:22:29;6.55;;;3.28;;
66567;SDS011;53422;49.296;6.900;2022-11-15T01:24:54;8.00;;;3.13;;
66567;SDS011;53422;49.296;6.900;2022-11-15T01:27:20;5.60;;;2.97;;
66567;SDS011;53422;49.296;6.900;2022-11-15T01:29:46;7.20;;;2.83;;
66567;SDS011;53422;49.296;6.900;2022-11-15T01:32:12;8.40;;;2.90;;
66567;SDS011;53422;49.296;6.900;2022-11-15T01:34:37;7.95;;;3.08;;
66567;SDS011;53422;49.296;6.900;2022-11-15T01:37:03;9.85;;;3.67;;
66567;SDS011;53422;49.296;6.900;2022-11-15T01:39:28;7.35;;;3.00;;
66567;SDS011;53422;49.296;6.900;2022-11-15T01:41:54;6.45;;;3.25;;
66567;SDS011;53422;49.296;6.900;2022-11-15T01:47:15;9.63;;;3.53;;
66567;SDS011;53422;49.296;6.900;2022-11-15T01:50:30;7.18;;;3.15;;
66567;SDS011;53422;49.296;6.900;2022-11-15T01:52:37;8.73;;;3.40;;
66567;SDS011;53422;49.296;6.900;2022-11-15T01:57:36;8.20;;;3.50;;
66567;SDS011;53422;49.296;6.900;2022-11-15T02:00:03;8.45;;;4.32;;
66567;SDS011;53422;49.296;6.900;2022-11-15T02:02:30;12.18;;;3.55;;
66567;SDS011;53422;49.296;6.900;2022-11-15T02:04:56;7.68;;;3.47;;
66567;SDS011;53422;49.296;6.900;2022-11-15T02:07:21;9.05;;;3.55;;
66567;SDS011;53422;49.296;6.900;2022-11-15T02:09:48;7.30;;;3.25;;
66567;SDS011;53422;49.296;6.900;2022-11-15T02:12:17;7.53;;;4.03;;
66567;SDS011;53422;49.296;6.900;2022-11-15T02:14:46;8.15;;;3.80;;
66567;SDS011;53422;49.296;6.900;2022-11-15T02:29:05;6.93;;;3.45;;
66567;SDS011;53422;49.296;6.900;2022-11-15T02:31:59;8.18;;;4.25;;
66567;SDS011;53422;49.296;6.900;2022-11-15T02:37:22;8.13;;;3.75;;
66567;SDS011;53422;49.296;6.900;2022-11-15T02:40:07;8.50;;;3.90;;
66567;SDS011;53422;49.296;6.900;2022-11-15T02:42:50;6.10;;;2.67;;
66567;SDS011;53422;49.296;6.900;2022-11-15T02:45:39;8.95;;;3.58;;
66567;SDS011;53422;49.296;6.900;2022-11-15T02:48:11;7.95;;;4.28;;
66567;SDS011;53422;49.296;6.900;2022-11-15T02:50:37;8.68;;;3.45;;
66567;SDS011;53422;49.296;6.900;2022-11-15T02:53:03;8.57;;;4.07;;
66567;SDS011;53422;49.296;6.900;2022-11-15T02:55:30;9.40;;;4.63;;
66567;SDS011;53422;49.296;6.900;2022-11-15T02:58:07;9.18;;;4.25;;
66567;SDS011;53422;49.296;6.900;2022-11-15T03:00:47;7.82;;;3.90;;
66567;SDS011;53422;49.296;6.900;2022-11-15T03:08:48;9.10;;;4.22;;
66567;SDS011;53422;49.296;6.900;2022-11-15T03:11:25;8.88;;;3.63;;
66567;SDS011;53422;49.296;6.900;2022-11-15T03:14:14;8.27;;;4.10;;
66567;SDS011;53422;49.296;6.900;2022-11-15T03:17:05;8.65;;;3.72;;
66567;SDS011;53422;49.296;6.900;2022-11-15T03:22:16;7.90;;;3.83;;
66567;SDS011;53422;49.296;6.900;2022-11-15T03:24:45;7.80;;;3.90;;
66567;SDS011;53422;49.296;6.900;2022-11-15T03:27:15;11.02;;;4.32;;
66567;SDS011;53422;49.296;6.900;2022-11-15T03:29:47;9.43;;;4.25;;
66567;SDS011;53422;49.296;6.900;2022-11-15T03:32:27;11.98;;;4.05;;
66567;SDS011;53422;49.296;6.900;2022-11-15T03:37:22;8.95;;;3.75;;
66567;SDS011;53422;49.296;6.900;2022-11-15T03:39:54;6.72;;;3.45;;
66567;SDS011;53422;49.296;6.900;2022-11-15T03:42:22;11.00;;;4.22;;
66567;SDS011;53422;49.296;6.900;2022-11-15T03:45:02;5.93;;;3.05;;
66567;SDS011;53422;49.296;6.900;2022-11-15T03:47:51;10.27;;;3.75;;
66567;SDS011;53422;49.296;6.900;2022-11-15T03:50:30;8.60;;;4.03;;
66567;SDS011;53422;49.296;6.900;2022-11-15T03:52:56;8.43;;;3.78;;
66567;SDS011;53422;49.296;6.900;2022-11-15T03:55:22;8.57;;;3.70;;
66567;SDS011;53422;49.296;6.900;2022-11-15T03:57:49;7.32;;;3.65;;
66567;SDS011;53422;49.296;6.900;2022-11-15T04:00:18;7.35;;;3.53;;
66567;SDS011;53422;49.296;6.900;2022-11-15T04:02:44;9.57;;;3.75;;
66567;SDS011;53422;49.296;6.900;2022-11-15T04:05:09;8.25;;;3.38;;
66567;SDS011;53422;49.296;6.900;2022-11-15T04:07:35;8.00;;;3.65;;
66567;SDS011;53422;49.296;6.900;2022-11-15T04:10:00;6.78;;;3.47;;
66567;SDS011;53422;49.296;6.900;2022-11-15T04:12:31;7.82;;;4.07;;
66567;SDS011;53422;49.296;6.900;2022-11-15T04:15:10;7.22;;;3.83;;
66567;SDS011;53422;49.296;6.900;2022-11-15T04:17:41;7.05;;;4.00;;
66567;SDS011;53422;49.296;6.900;2022-11-15T04:20:16;9.43;;;4.55;;
66567;SDS011;53422;49.296;6.900;2022-11-15T04:23:12;8.30;;;3.70;;
66567;SDS011;53422;49.296;6.900;2022-11-15T04:25:59;8.10;;;3.45;;
66567;SDS011;53422;49.296;6.900;2022-11-15T04:28:26;7.45;;;3.80;;
66567;SDS011;53422;49.296;6.900;2022-11-15T04:30:52;7.13;;;3.20;;
66567;SDS011;53422;49.296;6.900;2022-11-15T04:33:18;8.60;;;3.78;;
66567;SDS011;53422;49.296;6.900;2022-11-15T04:35:43;7.28;;;3.72;;
66567;SDS011;53422;49.296;6.900;2022-11-15T04:38:29;9.00;;;3.35;;
66567;SDS011;53422;49.296;6.900;2022-11-15T04:40:55;9.60;;;3.63;;
66567;SDS011;53422;49.296;6.900;2022-11-15T04:43:20;6.20;;;3.33;;
66567;SDS011;53422;49.296;6.900;2022-11-15T04:45:46;5.90;;;3.38;;
66567;SDS011;53422;49.296;6.900;2022-11-15T04:48:11;6.28;;;3.05;;
66567;SDS011;53422;49.296;6.900;2022-11-15T04:50:37;6.53;;;2.83;;
66567;SDS011;53422;49.296;6.900;2022-11-15T04:53:02;7.57;;;3.20;;
66567;SDS011;53422;49.296;6.900;2022-11-15T04:55:28;9.40;;;3.42;;
66567;SDS011;53422;49.296;6.900;2022-11-15T04:57:57;9.43;;;3.15;;
66567;SDS011;53422;49.296;6.900;2022-11-15T05:00:24;6.63;;;3.05;;
66567;SDS011;53422;49.296;6.900;2022-11-15T05:02:50;6.85;;;3.58;;
66567;SDS011;53422;49.296;6.900;2022-11-15T05:05:35;8.48;;;3.80;;
66567;SDS011;53422;49.296;6.900;2022-11-15T05:08:00;8.48;;;3.88;;
66567;SDS011;53422;49.296;6.900;2022-11-15T05:10:26;7.38;;;3.35;;
66567;SDS011;53422;49.296;6.900;2022-11-15T05:12:51;7.25;;;3.22;;
66567;SDS011;53422;49.296;6.900;2022-11-15T05:15:17;8.23;;;3.20;;
66567;SDS011;53422;49.296;6.900;2022-11-15T05:17:42;5.72;;;3.03;;
66567;SDS011;53422;49.296;6.900;2022-11-15T05:20:08;6.18;;;3.15;;
66567;SDS011;53422;49.296;6.900;2022-11-15T05:22:34;7.38;;;3.05;;
66567;SDS011;53422;49.296;6.900;2022-11-15T05:25:00;6.28;;;3.10;;
66567;SDS011;53422;49.296;6.900;2022-11-15T05:27:25;6.65;;;3.33;;
66567;SDS011;53422;49.296;6.900;2022-11-15T05:29:51;5.93;;;2.58;;
66567;SDS011;53422;49.296;6.900;2022-11-15T05:32:17;7.43;;;3.55;;
66567;SDS011;53422;49.296;6.900;2022-11-15T05:34:43;6.65;;;3.65;;
66567;SDS011;53422;49.296;6.900;2022-11-15T05:37:09;5.03;;;2.90;;
66567;SDS011;53422;49.296;6.900;2022-11-15T05:39:34;6.07;;;2.97;;
66567;SDS011;53422;49.296;6.900;2022-11-15T05:42:10;8.07;;;3.33;;
66567;SDS011;53422;49.296;6.900;2022-11-15T05:44:39;7.63;;;3.00;;
66567;SDS011;53422;49.296;6.900;2022-11-15T05:47:08;5.20;;;2.42;;
66567;SDS011;53422;49.296;6.900;2022-11-15T05:49:36;7.03;;;3.33;;
66567;SDS011;53422;49.296;6.900;2022-11-15T05:52:05;5.65;;;2.85;;
66567;SDS011;53422;49.296;6.900;2022-11-15T05:54:34;6.35;;;2.58;;
66567;SDS011;53422;49.296;6.900;2022-11-15T05:57:01;7.78;;;3.10;;
66567;SDS011;53422;49.296;6.900;2022-11-15T05:59:28;6.13;;;3.30;;
66567;SDS011;53422;49.296;6.900;2022-11-15T06:01:55;6.40;;;2.95;;
66567;SDS011;53422;49.296;6.900;2022-11-15T06:04:21;5.13;;;2.72;;
66567;SDS011;53422;49.296;6.900;2022-11-15T06:06:46;9.25;;;3.17;;
66567;SDS011;53422;49.296;6.900;2022-11-15T06:09:12;6.10;;;2.80;;
66567;SDS011;53422;49.296;6.900;2022-11-15T06:11:37;5.95;;;2.65;;
66567;SDS011;53422;49.296;6.900;2022-11-15T06:14:03;7.00;;;3.80;;
66567;SDS011;53422;49.296;6.900;2022-11-15T06:16:29;6.82;;;3.20;;
66567;SDS011;53422;49.296;6.900;2022-11-15T06:18:54;5.32;;;2.85;;
66567;SDS011;53422;49.296;6.900;2022-11-15T06:21:20;5.30;;;3.17;;
66567;SDS011;53422;49.296;6.900;2022-11-15T06:23:45;10.05;;;3.15;;
66567;SDS011;53422;49.296;6.900;2022-11-15T06:26:11;7.43;;;3.20;;
66567;SDS011;53422;49.296;6.900;2022-11-15T06:28:36;6.10;;;3.15;;
66567;SDS011;53422;49.296;6.900;2022-11-15T06:31:06;6.25;;;3.25;;
66567;SDS011;53422;49.296;6.900;2022-11-15T06:33:34;5.57;;;3.08;;
66567;SDS011;53422;49.296;6.900;2022-11-15T06:36:03;7.90;;;3.72;;
66567;SDS011;53422;49.296;6.900;2022-11-15T06:38:30;6.32;;;2.90;;
66567;SDS011;53422;49.296;6.900;2022-11-15T06:41:00;7.53;;;2.97;;
66567;SDS011;53422;49.296;6.900;2022-11-15T06:43:27;8.82;;;3.17;;
66567;SDS011;53422;49.296;6.900;2022-11-15T06:45:52;7.22;;;3.03;;
66567;SDS011;53422;49.296;6.900;2022-11-15T06:48:18;5.50;;;3.00;;
66567;SDS011;53422;49.296;6.900;2022-11-15T06:50:49;6.22;;;2.78;;
66567;SDS011;53422;49.296;6.900;2022-11-15T06:53:16;7.65;;;3.63;;
66567;SDS011;53422;49.296;6.900;2022-11-15T06:55:42;7.90;;;3.53;;
66567;SDS011;53422;49.296;6.900;2022-11-15T06:58:07;8.57;;;3.90;;
66567;SDS011;53422;49.296;6.900;2022-11-15T07:00:33;6.43;;;3.35;;
66567;SDS011;53422;49.296;6.900;2022-11-15T07:03:02;7.05;;;3.25;;
66567;SDS011;53422;49.296;6.900;2022-11-15T07:05:28;8.60;;;3.83;;
66567;SDS011;53422;49.296;6.900;2022-11-15T07:07:54;9.95;;;3.83;;
66567;SDS011;53422;49.296;6.900;2022-11-15T07:10:22;8.63;;;3.80;;
66567;SDS011;53422;49.296;6.900;2022-11-15T07:12:50;6.35;;;3.35;;
66567;SDS011;53422;49.296;6.900;2022-11-15T07:15:16;8.02;;;3.90;;
66567;SDS011;53422;49.296;6.900;2022-11-15T07:17:45;7.97;;;3.83;;
66567;SDS011;53422;49.296;6.900;2022-11-15T07:20:11;9.75;;;4.22;;
66567;SDS011;53422;49.296;6.900;2022-11-15T07:22:38;7.85;;;3.75;;
66567;SDS011;53422;49.296;6.900;2022-11-15T07:25:04;8.18;;;3.67;;
66567;SDS011;53422;49.296;6.900;2022-11-15T07:27:30;7.22;;;3.72;;
66567;SDS011;53422;49.296;6.900;2022-11-15T07:29:56;7.18;;;3.70;;
66567;SDS011;53422;49.296;6.900;2022-11-15T07:32:21;8.18;;;3.97;;
66567;SDS011;53422;49.296;6.900;2022-11-15T07:34:47;7.75;;;3.35;;
66567;SDS011;53422;49.296;6.900;2022-11-15T07:37:12;8.43;;;3.85;;
66567;SDS011;53422;49.296;6.900;2022-11-15T07:39:38;9.10;;;3.97;;
66567;SDS011;53422;49.296;6.900;2022-11-15T07:42:03;8.50;;;3.65;;
66567;SDS011;53422;49.296;6.900;2022-11-15T07:44:47;6.97;;;3.45;;
66567;SDS011;53422;49.296;6.900;2022-11-15T07:47:13;7.20;;;3.47;;
66567;SDS011;53422;49.296;6.900;2022-11-15T07:49:39;8.10;;;3.92;;
66567;SDS011;53422;49.296;6.900;2022-11-15T07:52:04;8.25;;;4.00;;
66567;SDS011;53422;49.296;6.900;2022-11-15T07:54:30;8.32;;;3.75;;
66567;SDS011;53422;49.296;6.900;2022-11-15T07:56:55;8.40;;;3.70;;
66567;SDS011;53422;49.296;6.900;2022-11-15T07:59:21;7.53;;;3.72;;
66567;SDS011;53422;49.296;6.900;2022-11-15T08:01:46;9.70;;;4.30;;
66567;SDS011;53422;49.296;6.900;2022-11-15T08:04:12;9.13;;;4.07;;
66567;SDS011;53422;49.296;6.900;2022-11-15T08:06:38;8.75;;;4.50;;
66567;SDS011;53422;49.296;6.900;2022-11-15T08:09:03;8.80;;;4.70;;
66567;SDS011;53422;49.296;6.900;2022-11-15T08:11:29;8.10;;;3.67;;
66567;SDS011;53422;49.296;6.900;2022-11-15T08:13:55;8.77;;;4.03;;
66567;SDS011;53422;49.296;6.900;2022-11-15T08:16:20;7.32;;;3.67;;
66567;SDS011;53422;49.296;6.900;2022-11-15T08:18:46;7.15;;;3.40;;
66567;SDS011;53422;49.296;6.900;2022-11-15T08:21:13;6.47;;;3.08;;
66567;SDS011;53422;49.296;6.900;2022-11-15T08:23:43;6.28;;;2.97;;
66567;SDS011;53422;49.296;6.900;2022-11-15T08:26:08;6.07;;;3.15;;
66567;SDS011;53422;49.296;6.900;2022-11-15T08:28:34;6.05;;;2.80;;
66567;SDS011;53422;49.296;6.900;2022-11-15T08:31:00;5.65;;;3.00;;
66567;SDS011;53422;49.296;6.900;2022-11-15T08:33:26;5.30;;;2.75;;
66567;SDS011;53422;49.296;6.900;2022-11-15T08:35:52;5.10;;;2.58;;
66567;SDS011;53422;49.296;6.900;2022-11-15T08:38:21;8.43;;;3.42;;
66567;SDS011;53422;49.296;6.900;2022-11-15T08:40:47;7.28;;;3.50;;
66567;SDS011;53422;49.296;6.900;2022-11-15T08:43:12;6.90;;;2.80;;
66567;SDS011;53422;49.296;6.900;2022-11-15T08:45:38;5.75;;;2.88;;
66567;SDS011;53422;49.296;6.900;2022-11-15T08:48:04;6.93;;;2.95;;
66567;SDS011;53422;49.296;6.900;2022-11-15T08:50:30;6.63;;;2.78;;
66567;SDS011;53422;49.296;6.900;2022-11-15T08:52:57;6.55;;;3.10;;
66567;SDS011;53422;49.296;6.900;2022-11-15T08:55:29;6.07;;;2.85;;
66567;SDS011;53422;49.296;6.900;2022-11-15T08:57:57;5.10;;;2.60;;
66567;SDS011;53422;49.296;6.900;2022-11-15T09:00:23;5.75;;;2.53;;
66567;SDS011;53422;49.296;6.900;2022-11-15T09:02:48;5.57;;;2.70;;
66567;SDS011;53422;49.296;6.900;2022-11-15T09:05:14;4.10;;;2.28;;
66567;SDS011;53422;49.296;6.900;2022-11-15T09:07:40;5.88;;;2.55;;
66567;SDS011;53422;49.296;6.900;2022-11-15T09:10:06;6.18;;;2.58;;
66567;SDS011;53422;49.296;6.900;2022-11-15T09:12:32;8.85;;;2.33;;
66567;SDS011;53422;49.296;6.900;2022-11-15T09:14:57;7.25;;;2.65;;
66567;SDS011;53422;49.296;6.900;2022-11-15T09:17:23;5.00;;;2.22;;
66567;SDS011;53422;49.296;6.900;2022-11-15T09:19:48;8.50;;;2.45;;
66567;SDS011;53422;49.296;6.900;2022-11-15T09:22:14;6.43;;;2.42;;
66567;SDS011;53422;49.296;6.900;2022-11-15T09:24:40;4.85;;;2.38;;
66567;SDS011;53422;49.296;6.900;2022-11-15T09:27:05;4.57;;;1.98;;
66567;SDS011;53422;49.296;6.900;2022-11-15T09:29:31;4.88;;;2.22;;
66567;SDS011;53422;49.296;6.900;2022-11-15T09:31:56;4.72;;;2.40;;
66567;SDS011;53422;49.296;6.900;2022-11-15T09:34:22;4.88;;;1.85;;
66567;SDS011;53422;49.296;6.900;2022-11-15T09:36:47;3.90;;;2.22;;
66567;SDS011;53422;49.296;6.900;2022-11-15T09:39:13;5.30;;;2.40;;
66567;SDS011;53422;49.296;6.900;2022-11-15T09:44:24;4.93;;;2.03;;
66567;SDS011;53422;49.296;6.900;2022-11-15T09:49:28;4.78;;;1.88;;
66567;SDS011;53422;49.296;6.900;2022-11-15T09:51:56;5.10;;;2.45;;
66567;SDS011;53422;49.296;6.900;2022-11-15T09:54:30;4.60;;;2.10;;
66567;SDS011;53422;49.296;6.900;2022-11-15T10:00:14;5.25;;;2.03;;
66567;SDS011;53422;49.296;6.900;2022-11-15T10:03:08;3.92;;;2.20;;
66567;SDS011;53422;49.296;6.900;2022-11-15T10:05:48;4.95;;;2.33;;
66567;SDS011;53422;49.296;6.900;2022-11-15T10:13:35;5.63;;;1.50;;
66567;SDS011;53422;49.296;6.900;2022-11-15T10:19:00;5.22;;;2.10;;
66567;SDS011;53422;49.296;6.900;2022-11-15T10:24:26;4.18;;;2.13;;
66567;SDS011;53422;49.296;6.900;2022-11-15T10:26:54;4.80;;;2.08;;
66567;SDS011;53422;49.296;6.900;2022-11-15T10:29:21;4.22;;;2.53;;
66567;SDS011;53422;49.296;6.900;2022-11-15T10:31:48;3.58;;;1.38;;
66567;SDS011;53422;49.296;6.900;2022-11-15T10:34:16;4.65;;;2.42;;
66567;SDS011;53422;49.296;6.900;2022-11-15T10:36:45;4.80;;;2.10;;
66567;SDS011;53422;49.296;6.900;2022-11-15T10:39:12;3.22;;;1.83;;
66567;SDS011;53422;49.296;6.900;2022-11-15T10:41:38;3.30;;;1.52;;
66567;SDS011;53422;49.296;6.900;2022-11-15T10:46:31;4.10;;;1.63;;
66567;SDS011;53422;49.296;6.900;2022-11-15T10:51:47;3.55;;;1.63;;
66567;SDS011;53422;49.296;6.900;2022-11-15T10:56:48;2.08;;;1.02;;
66567;SDS011;53422;49.296;6.900;2022-11-15T10:59:53;3.88;;;1.30;;
66567;SDS011;53422;49.296;6.900;2022-11-15T11:05:02;2.63;;;1.13;;
66567;SDS011;53422;49.296;6.900;2022-11-15T11:07:32;4.18;;;1.27;;
66567;SDS011;53422;49.296;6.900;2022-11-15T11:12:44;2.60;;;1.25;;
66567;SDS011;53422;49.296;6.900;2022-11-15T11:15:12;4.32;;;1.00;;
66567;SDS011;53422;49.296;6.900;2022-11-15T11:20:41;2.08;;;1.05;;
66567;SDS011;53422;49.296;6.900;2022-11-15T11:23:26;1.63;;;0.68;;
66567;SDS011;53422;49.296;6.900;2022-11-15T11:29:15;1.85;;;0.80;;
66567;SDS011;53422;49.296;6.900;2022-11-15T11:35:15;2.13;;;0.75;;
66567;SDS011;53422;49.296;6.900;2022-11-15T11:38:11;1.73;;;0.90;;
66567;SDS011;53422;49.296;6.900;2022-11-15T11:46:16;2.88;;;0.90;;
66567;SDS011;53422;49.296;6.900;2022-11-15T11:49:01;1.23;;;0.90;;
66567;SDS011;53422;49.296;6.900;2022-11-15T11:51:38;2.90;;;0.75;;
66567;SDS011;53422;49.296;6.900;2022-11-15T11:54:12;1.40;;;0.77;;
66567;SDS011;53422;49.296;6.900;2022-11-15T11:56:47;1.65;;;0.90;;
66567;SDS011;53422;49.296;6.900;2022-11-15T11:59:20;2.75;;;1.00;;
66567;SDS011;53422;49.296;6.900;2022-11-15T12:01:50;3.78;;;1.10;;
66567;SDS011;53422;49.296;6.900;2022-11-15T12:09:59;3.03;;;1.10;;
66567;SDS011;53422;49.296;6.900;2022-11-15T12:12:31;2.05;;;0.95;;
66567;SDS011;53422;49.296;6.900;2022-11-15T12:17:33;2.13;;;0.85;;
66567;SDS011;53422;49.296;6.900;2022-11-15T12:19:59;3.78;;;0.90;;
66567;SDS011;53422;49.296;6.900;2022-11-15T12:22:35;2.80;;;0.95;;
66567;SDS011;53422;49.296;6.900;2022-11-15T12:25:04;2.45;;;1.33;;
66567;SDS011;53422;49.296;6.900;2022-11-15T12:27:39;1.90;;;0.80;;
66567;SDS011;53422;49.296;6.900;2022-11-15T12:30:15;2.60;;;0.80;;
66567;SDS011;53422;49.296;6.900;2022-11-15T12:33:28;1.33;;;0.63;;
66567;SDS011;53422;49.296;6.900;2022-11-15T12:36:02;5.10;;;1.00;;
66567;SDS011;53422;49.296;6.900;2022-11-15T12:41:28;2.70;;;1.17;;
66567;SDS011;53422;49.296;6.900;2022-11-15T12:43:58;3.40;;;1.63;;
66567;SDS011;53422;49.296;6.900;2022-11-15T13:07:59;2.00;;;0.82;;
66567;SDS011;53422;49.296;6.900;2022-11-15T13:10:32;3.10;;;1.00;;
66567;SDS011;53422;49.296;6.900;2022-11-15T13:13:07;1.73;;;0.80;;
66567;SDS011;53422;49.296;6.900;2022-11-15T13:18:31;1.75;;;0.70;;
66567;SDS011;53422;49.296;6.900;2022-11-15T13:20:59;3.28;;;0.80;;
66567;SDS011;53422;49.296;6.900;2022-11-15T13:23:25;3.33;;;1.13;;
66567;SDS011;53422;49.296;6.900;2022-11-15T13:28:31;2.45;;;0.90;;
66567;SDS011;53422;49.296;6.900;2022-11-15T13:33:40;2.53;;;0.80;;
66567;SDS011;53422;49.296;6.900;2022-11-15T13:36:07;3.00;;;1.00;;
66567;SDS011;53422;49.296;6.900;2022-11-15T13:38:59;1.75;;;0.90;;
66567;SDS011;53422;49.296;6.900;2022-11-15T13:41:44;1.88;;;1.13;;
66567;SDS011;53422;49.296;6.900;2022-11-15T13:44:53;3.67;;;1.02;;
66567;SDS011;53422;49.296;6.900;2022-11-15T13:47:19;2.22;;;0.98;;
66567;SDS011;53422;49.296;6.900;2022-11-15T13:49:44;3.92;;;1.13;;
66567;SDS011;53422;49.296;6.900;2022-11-15T13:52:11;2.55;;;1.23;;
66567;SDS011;53422;49.296;6.900;2022-11-15T13:59:49;1.90;;;1.10;;
66567;SDS011;53422;49.296;6.900;2022-11-15T14:02:16;3.47;;;1.67;;
66567;SDS011;53422;49.296;6.900;2022-11-15T14:05:11;2.53;;;1.00;;
66567;SDS011;53422;49.296;6.900;2022-11-15T14:07:30;2.10;;;1.00;;
66567;SDS011;53422;49.296;6.900;2022-11-15T14:09:55;2.80;;;1.30;;
66567;SDS011;53422;49.296;6.900;2022-11-15T14:12:23;5.47;;;1.73;;
66567;SDS011;53422;49.296;6.900;2022-11-15T14:14:51;4.85;;;1.60;;
66567;SDS011;53422;49.296;6.900;2022-11-15T14:17:32;3.20;;;1.17;;
66567;SDS011;53422;49.296;6.900;2022-11-15T14:19:59;2.55;;;1.20;;
66567;SDS011;53422;49.296;6.900;2022-11-15T14:22:29;5.00;;;1.80;;
66567;SDS011;53422;49.296;6.900;2022-11-15T14:27:30;3.38;;;1.20;;
66567;SDS011;53422;49.296;6.900;2022-11-15T14:29:56;2.47;;;1.08;;
66567;SDS011;53422;49.296;6.900;2022-11-15T14:32:26;4.00;;;1.38;;
66567;SDS011;53422;49.296;6.900;2022-11-15T14:34:57;3.38;;;1.23;;
66567;SDS011;53422;49.296;6.900;2022-11-15T14:37:31;3.08;;;1.52;;
66567;SDS011;53422;49.296;6.900;2022-11-15T14:39:59;2.35;;;1.27;;
66567;SDS011;53422;49.296;6.900;2022-11-15T14:42:26;3.08;;;1.38;;
66567;SDS011;53422;49.296;6.900;2022-11-15T14:44:51;3.53;;;1.50;;
66567;SDS011;53422;49.296;6.900;2022-11-15T14:47:17;4.07;;;1.30;;
66567;SDS011;53422;49.296;6.900;2022-11-15T14:49:43;2.70;;;1.52;;
66567;SDS011;53422;49.296;6.900;2022-11-15T14:52:25;2.88;;;1.35;;
66567;SDS011;53422;49.296;6.900;2022-11-15T14:54:53;2.80;;;1.55;;
66567;SDS011;53422;49.296;6.900;2022-11-15T14:57:19;3.45;;;1.70;;
66567;SDS011;53422;49.296;6.900;2022-11-15T14:59:45;2.92;;;1.50;;
66567;SDS011;53422;49.296;6.900;2022-11-15T15:02:15;3.17;;;1.33;;
66567;SDS011;53422;49.296;6.900;2022-11-15T15:04:43;3.20;;;1.40;;
66567;SDS011;53422;49.296;6.900;2022-11-15T15:07:09;3.17;;;1.75;;
66567;SDS011;53422;49.296;6.900;2022-11-15T15:09:35;3.28;;;1.50;;
66567;SDS011;53422;49.296;6.900;2022-11-15T15:12:00;2.97;;;1.52;;
66567;SDS011;53422;49.296;6.900;2022-11-15T15:14:26;3.38;;;1.63;;
66567;SDS011;53422;49.296;6.900;2022-11-15T15:16:52;2.90;;;1.58;;
66567;SDS011;53422;49.296;6.900;2022-11-15T15:19:18;2.85;;;1.63;;
66567;SDS011;53422;49.296;6.900;2022-11-15T15:21:43;3.88;;;1.70;;
66567;SDS011;53422;49.296;6.900;2022-11-15T15:24:13;3.15;;;1.60;;
66567;SDS011;53422;49.296;6.900;2022-11-15T15:26:40;3.38;;;2.30;;
66567;SDS011;53422;49.296;6.900;2022-11-15T15:29:05;2.42;;;1.25;;
66567;SDS011;53422;49.296;6.900;2022-11-15T15:31:33;4.25;;;2.17;;
66567;SDS011;53422;49.296;6.900;2022-11-15T15:33:59;3.90;;;1.63;;
66567;SDS011;53422;49.296;6.900;2022-11-15T15:36:24;2.03;;;1.10;;
66567;SDS011;53422;49.296;6.900;2022-11-15T15:38:50;4.03;;;1.40;;
66567;SDS011;53422;49.296;6.900;2022-11-15T15:41:19;3.75;;;1.80;;
66567;SDS011;53422;49.296;6.900;2022-11-15T15:43:46;3.03;;;1.42;;
66567;SDS011;53422;49.296;6.900;2022-11-15T15:46:16;4.68;;;1.65;;
66567;SDS011;53422;49.296;6.900;2022-11-15T15:48:43;5.03;;;1.60;;
66567;SDS011;53422;49.296;6.900;2022-11-15T15:51:09;6.82;;;1.80;;
66567;SDS011;53422;49.296;6.900;2022-11-15T15:53:35;3.90;;;1.30;;
66567;SDS011;53422;49.296;6.900;2022-11-15T15:56:01;3.40;;;1.45;;
66567;SDS011;53422;49.296;6.900;2022-11-15T15:58:32;5.47;;;1.65;;
66567;SDS011;53422;49.296;6.900;2022-11-15T16:01:02;2.72;;;1.25;;
66567;SDS011;53422;49.296;6.900;2022-11-15T16:03:28;3.90;;;1.25;;
66567;SDS011;53422;49.296;6.900;2022-11-15T16:05:54;4.53;;;1.20;;
66567;SDS011;53422;49.296;6.900;2022-11-15T16:08:21;2.78;;;1.65;;
66567;SDS011;53422;49.296;6.900;2022-11-15T16:10:47;2.13;;;1.48;;
66567;SDS011;53422;49.296;6.900;2022-11-15T16:13:14;3.40;;;1.40;;
66567;SDS011;53422;49.296;6.900;2022-11-15T16:15:40;3.60;;;1.52;;
66567;SDS011;53422;49.296;6.900;2022-11-15T16:18:08;6.32;;;1.83;;
66567;SDS011;53422;49.296;6.900;2022-11-15T16:20:49;6.25;;;2.45;;
66567;SDS011;53422;49.296;6.900;2022-11-15T16:23:17;4.07;;;1.58;;
66567;SDS011;53422;49.296;6.900;2022-11-15T16:28:19;3.85;;;1.73;;
66567;SDS011;53422;49.296;6.900;2022-11-15T16:30:49;5.13;;;1.60;;
66567;SDS011;53422;49.296;6.900;2022-11-15T16:33:29;5.03;;;1.98;;
66567;SDS011;53422;49.296;6.900;2022-11-15T16:35:54;4.43;;;2.20;;
66567;SDS011;53422;49.296;6.900;2022-11-15T16:38:20;3.03;;;1.30;;
66567;SDS011;53422;49.296;6.900;2022-11-15T16:40:45;5.55;;;1.70;;
66567;SDS011;53422;49.296;6.900;2022-11-15T16:43:11;3.33;;;1.75;;
66567;SDS011;53422;49.296;6.900;2022-11-15T16:45:37;8.23;;;3.78;;
66567;SDS011;53422;49.296;6.900;2022-11-15T16:48:03;6.03;;;2.47;;
66567;SDS011;53422;49.296;6.900;2022-11-15T16:50:30;5.00;;;2.33;;
66567;SDS011;53422;49.296;6.900;2022-11-15T16:52:59;5.68;;;2.05;;
66567;SDS011;53422;49.296;6.900;2022-11-15T16:55:26;4.00;;;2.08;;
66567;SDS011;53422;49.296;6.900;2022-11-15T16:57:53;5.38;;;2.60;;
66567;SDS011;53422;49.296;6.900;2022-11-15T17:00:20;5.55;;;2.47;;
66567;SDS011;53422;49.296;6.900;2022-11-15T17:02:47;5.22;;;2.45;;
66567;SDS011;53422;49.296;6.900;2022-11-15T17:05:14;6.32;;;2.55;;
66567;SDS011;53422;49.296;6.900;2022-11-15T17:07:45;5.18;;;2.03;;
66567;SDS011;53422;49.296;6.900;2022-11-15T17:10:18;2.80;;;1.48;;